OCN4TC EDDF-LGKO
Flight info
| Callsign | OCN4TC |
|---|---|
| Flight time | N/A |
| Altitude | 35000 |
| Route | CINDY8S CINDY Z74 LAMPU DCT NOMBO Y161 MAH DCT LATLO DCT OBEDI DCT DIPSA DCT MOSAV/N0436F370 DCT GUBOK DCT VEBAR DCT VABEK UL603 OLOTA DCT DISOR UL608 FSK DCT MES UN139 OKORO N139 LURUS L995 KOPAR |
| Aircraft | A320/M-SDE3FGHIRWY/LB1 |
Departure
| Time | N/A |
|---|---|
| Airport | Frankfurt Main Airport (EDDF) |
Arrival
| Time | 2026-05-06 09:27 |
|---|---|
| Airport | Kos International Airport "Ippokratis" (LGKO) |
| Time | Latitude | Longitude | Altitude | Speed | Heading |
|---|---|---|---|---|---|
| 2026-05-06 08:52 | 39.85270 | 24.30597 | 37095 ft | 491 kts | 142° |
| 2026-05-06 08:52 | 39.79905 | 24.36114 | 37097 ft | 491 kts | 142° |
| 2026-05-06 08:53 | 39.74577 | 24.41577 | 37087 ft | 491 kts | 142° |
| 2026-05-06 08:53 | 39.69206 | 24.47079 | 37083 ft | 492 kts | 142° |
| 2026-05-06 08:54 | 39.63820 | 24.52581 | 37085 ft | 492 kts | 142° |
| 2026-05-06 08:54 | 39.58432 | 24.58077 | 37087 ft | 493 kts | 142° |
| 2026-05-06 08:55 | 39.53053 | 24.63561 | 37089 ft | 493 kts | 142° |
| 2026-05-06 08:55 | 39.47645 | 24.69052 | 37082 ft | 493 kts | 142° |
| 2026-05-06 08:56 | 39.42244 | 24.74516 | 37095 ft | 492 kts | 142° |
| 2026-05-06 08:56 | 39.36856 | 24.79969 | 37106 ft | 492 kts | 142° |
| 2026-05-06 08:57 | 39.31497 | 24.85373 | 37105 ft | 492 kts | 142° |
| 2026-05-06 08:57 | 39.26103 | 24.90810 | 37105 ft | 491 kts | 142° |
| 2026-05-06 08:58 | 39.20705 | 24.96235 | 37097 ft | 491 kts | 142° |
| 2026-05-06 08:58 | 39.15004 | 25.01034 | 37109 ft | 490 kts | 151° |
| 2026-05-06 08:59 | 39.09115 | 25.05468 | 37093 ft | 491 kts | 151° |
| 2026-05-06 08:59 | 39.03203 | 25.09897 | 37089 ft | 492 kts | 151° |
| 2026-05-06 09:00 | 38.97278 | 25.14311 | 37092 ft | 492 kts | 151° |
| 2026-05-06 09:00 | 38.91346 | 25.18731 | 37091 ft | 492 kts | 151° |
| 2026-05-06 09:01 | 38.85451 | 25.23124 | 37097 ft | 492 kts | 151° |
| 2026-05-06 09:01 | 38.79523 | 25.27531 | 37107 ft | 492 kts | 151° |
| 2026-05-06 09:02 | 38.73594 | 25.31917 | 37113 ft | 492 kts | 151° |
| 2026-05-06 09:02 | 38.67660 | 25.36299 | 37101 ft | 493 kts | 151° |
| 2026-05-06 09:03 | 38.61726 | 25.40678 | 37099 ft | 494 kts | 151° |
| 2026-05-06 09:03 | 38.55762 | 25.45079 | 37102 ft | 494 kts | 151° |
| 2026-05-06 09:04 | 38.49802 | 25.49467 | 37106 ft | 495 kts | 151° |
| 2026-05-06 09:04 | 38.43835 | 25.53852 | 37099 ft | 495 kts | 151° |
| 2026-05-06 09:05 | 38.37914 | 25.58185 | 37112 ft | 494 kts | 151° |
| 2026-05-06 09:05 | 38.31953 | 25.62547 | 37118 ft | 494 kts | 151° |
| 2026-05-06 09:06 | 38.25988 | 25.66909 | 37127 ft | 494 kts | 152° |
| 2026-05-06 09:06 | 38.20018 | 25.71248 | 37111 ft | 494 kts | 152° |
| 2026-05-06 09:07 | 38.14044 | 25.75588 | 37102 ft | 495 kts | 152° |
| 2026-05-06 09:07 | 38.08050 | 25.79942 | 36735 ft | 496 kts | 151° |
| 2026-05-06 09:07 | 38.05059 | 25.82110 | 36478 ft | 496 kts | 151° |
| 2026-05-06 09:08 | 38.02052 | 25.84286 | 36217 ft | 497 kts | 151° |
| 2026-05-06 09:08 | 37.99052 | 25.86457 | 35958 ft | 497 kts | 151° |
| 2026-05-06 09:08 | 37.96047 | 25.88635 | 35715 ft | 498 kts | 151° |
| 2026-05-06 09:08 | 37.93037 | 25.90814 | 35458 ft | 498 kts | 151° |
| 2026-05-06 09:09 | 37.90045 | 25.92974 | 34726 ft | 503 kts | 151° |
| 2026-05-06 09:09 | 37.87003 | 25.95164 | 34163 ft | 501 kts | 150° |
| 2026-05-06 09:09 | 37.83979 | 25.97338 | 33471 ft | 500 kts | 151° |
| 2026-05-06 09:09 | 37.80965 | 25.99505 | 32850 ft | 497 kts | 151° |
| 2026-05-06 09:10 | 37.77967 | 26.01657 | 32235 ft | 494 kts | 151° |
| 2026-05-06 09:10 | 37.74982 | 26.03795 | 31621 ft | 492 kts | 151° |
| 2026-05-06 09:10 | 37.72018 | 26.05920 | 31010 ft | 489 kts | 151° |
| 2026-05-06 09:10 | 37.69061 | 26.08038 | 30396 ft | 488 kts | 151° |
| 2026-05-06 09:11 | 37.66114 | 26.10149 | 29748 ft | 486 kts | 151° |
| 2026-05-06 09:11 | 37.63189 | 26.12240 | 29168 ft | 481 kts | 151° |
| 2026-05-06 09:11 | 37.60286 | 26.14315 | 28598 ft | 477 kts | 151° |
| 2026-05-06 09:11 | 37.57410 | 26.16373 | 28028 ft | 473 kts | 152° |
| 2026-05-06 09:12 | 37.54571 | 26.18402 | 27550 ft | 467 kts | 151° |
| 2026-05-06 09:12 | 37.51756 | 26.20410 | 27018 ft | 462 kts | 152° |
| 2026-05-06 09:12 | 37.48964 | 26.22397 | 26463 ft | 458 kts | 152° |
| 2026-05-06 09:12 | 37.46209 | 26.24354 | 25941 ft | 454 kts | 152° |
| 2026-05-06 09:13 | 37.43475 | 26.26292 | 25505 ft | 447 kts | 152° |
| 2026-05-06 09:13 | 37.40807 | 26.28187 | 24975 ft | 444 kts | 152° |
| 2026-05-06 09:13 | 37.38998 | 26.29475 | 24595 ft | 442 kts | 152° |
| 2026-05-06 09:13 | 37.35474 | 26.31978 | 24018 ft | 434 kts | 152° |
| 2026-05-06 09:14 | 37.32853 | 26.33838 | 23486 ft | 431 kts | 152° |
| 2026-05-06 09:14 | 37.30247 | 26.35683 | 22925 ft | 428 kts | 152° |
| 2026-05-06 09:14 | 37.27665 | 26.37510 | 22387 ft | 424 kts | 152° |
| 2026-05-06 09:14 | 37.25103 | 26.39318 | 21867 ft | 421 kts | 152° |
| 2026-05-06 09:15 | 37.23383 | 26.40532 | 21527 ft | 419 kts | 151° |
| 2026-05-06 09:15 | 37.20852 | 26.42318 | 21029 ft | 415 kts | 151° |
| 2026-05-06 09:15 | 37.18381 | 26.44063 | 20561 ft | 412 kts | 151° |
| 2026-05-06 09:15 | 37.15888 | 26.45823 | 20073 ft | 409 kts | 152° |
| 2026-05-06 09:16 | 37.13413 | 26.47568 | 19612 ft | 406 kts | 151° |
| 2026-05-06 09:16 | 37.10959 | 26.49294 | 19166 ft | 404 kts | 151° |
| 2026-05-06 09:16 | 37.08516 | 26.51010 | 18723 ft | 401 kts | 151° |
| 2026-05-06 09:16 | 37.06096 | 26.52713 | 18282 ft | 398 kts | 151° |
| 2026-05-06 09:17 | 37.03688 | 26.54407 | 17807 ft | 395 kts | 151° |
| 2026-05-06 09:17 | 37.01304 | 26.56082 | 17306 ft | 390 kts | 151° |
| 2026-05-06 09:17 | 36.98945 | 26.57735 | 16465 ft | 386 kts | 151° |
| 2026-05-06 09:17 | 36.96618 | 26.59362 | 15646 ft | 382 kts | 151° |
| 2026-05-06 09:18 | 36.94307 | 26.60977 | 14854 ft | 377 kts | 151° |
| 2026-05-06 09:18 | 36.92026 | 26.62571 | 14102 ft | 373 kts | 151° |
| 2026-05-06 09:18 | 36.89776 | 26.64143 | 13287 ft | 368 kts | 150° |
| 2026-05-06 09:18 | 36.87562 | 26.65692 | 12509 ft | 362 kts | 150° |
| 2026-05-06 09:19 | 36.85370 | 26.67225 | 11378 ft | 365 kts | 150° |
| 2026-05-06 09:19 | 36.83205 | 26.68938 | 10140 ft | 369 kts | 140° |
| 2026-05-06 09:19 | 36.81391 | 26.71103 | 8921 ft | 365 kts | 130° |
| 2026-05-06 09:19 | 36.79671 | 26.73460 | 7866 ft | 365 kts | 130° |
| 2026-05-06 09:20 | 36.78013 | 26.75746 | 7443 ft | 343 kts | 129° |
| 2026-05-06 09:20 | 36.76473 | 26.77869 | 7264 ft | 319 kts | 129° |
| 2026-05-06 09:20 | 36.75011 | 26.79887 | 7128 ft | 307 kts | 129° |
| 2026-05-06 09:20 | 36.73606 | 26.81825 | 6944 ft | 298 kts | 129° |
| 2026-05-06 09:21 | 36.72232 | 26.83720 | 6736 ft | 289 kts | 129° |
| 2026-05-06 09:21 | 36.70965 | 26.85597 | 6582 ft | 277 kts | 123° |
| 2026-05-06 09:21 | 36.69893 | 26.87533 | 6406 ft | 266 kts | 117° |
| 2026-05-06 09:21 | 36.69020 | 26.89510 | 6226 ft | 255 kts | 110° |
| 2026-05-06 09:22 | 36.68381 | 26.91557 | 5799 ft | 254 kts | 100° |
| 2026-05-06 09:22 | 36.68057 | 26.93722 | 5365 ft | 253 kts | 90° |
| 2026-05-06 09:22 | 36.67865 | 26.95809 | 5217 ft | 232 kts | 93° |
| 2026-05-06 09:22 | 36.67632 | 26.97745 | 4818 ft | 222 kts | 92° |
| 2026-05-06 09:23 | 36.67546 | 26.99630 | 4283 ft | 215 kts | 82° |
| 2026-05-06 09:23 | 36.67758 | 27.01441 | 3753 ft | 208 kts | 70° |
| 2026-05-06 09:23 | 36.68218 | 27.03103 | 3225 ft | 204 kts | 63° |
| 2026-05-06 09:23 | 36.68813 | 27.04685 | 2757 ft | 201 kts | 59° |
| 2026-05-06 09:24 | 36.69469 | 27.06229 | 2476 ft | 202 kts | 58° |
| 2026-05-06 09:24 | 36.70153 | 27.07731 | 2334 ft | 195 kts | 56° |
| 2026-05-06 09:24 | 36.70806 | 27.09138 | 2282 ft | 180 kts | 57° |
| 2026-05-06 09:24 | 36.71431 | 27.10460 | 2182 ft | 175 kts | 55° |
| 2026-05-06 09:25 | 36.72187 | 27.11625 | 2008 ft | 173 kts | 37° |
| 2026-05-06 09:25 | 36.73226 | 27.12329 | 1785 ft | 167 kts | 16° |
| 2026-05-06 09:25 | 36.74317 | 27.12546 | 1562 ft | 151 kts | 359° |
| 2026-05-06 09:25 | 36.75305 | 27.12302 | 1304 ft | 142 kts | 341° |
| 2026-05-06 09:26 | 36.76147 | 27.11706 | 1046 ft | 136 kts | 327° |
| 2026-05-06 09:26 | 36.76940 | 27.11070 | 823 ft | 137 kts | 328° |
| 2026-05-06 09:26 | 36.77744 | 27.10445 | 611 ft | 133 kts | 330° |
| 2026-05-06 09:26 | 36.78523 | 27.09840 | 425 ft | 132 kts | 329° |
| 2026-05-06 09:27 | 36.79241 | 27.09285 | 408 ft | 101 kts | 328° |
| 2026-05-06 09:27 | 36.79733 | 27.08900 | 414 ft | 74 kts | 328° |
| 2026-05-06 09:27 | 36.80096 | 27.08612 | 413 ft | 46 kts | 330° |
| 2026-05-06 09:27 | 36.80260 | 27.08489 | 413 ft | 17 kts | 328° |
| 2026-05-06 09:28 | 36.80335 | 27.08456 | 421 ft | 9 kts | 22° |
| 2026-05-06 09:28 | 36.80350 | 27.08519 | 418 ft | 8 kts | 100° |
| 2026-05-06 09:28 | 36.80339 | 27.08592 | 419 ft | 9 kts | 101° |
| 2026-05-06 09:28 | 36.80299 | 27.08700 | 416 ft | 16 kts | 142° |
| 2026-05-06 09:29 | 36.80210 | 27.08768 | 418 ft | 14 kts | 148° |
| 2026-05-06 09:29 | 36.80126 | 27.08834 | 413 ft | 14 kts | 147° |
| 2026-05-06 09:29 | 36.80048 | 27.08895 | 414 ft | 13 kts | 148° |
| 2026-05-06 09:29 | 36.79978 | 27.08950 | 413 ft | 11 kts | 148° |
| 2026-05-06 09:30 | 36.79908 | 27.08982 | 417 ft | 10 kts | 157° |
| 2026-05-06 09:30 | 36.79913 | 27.09047 | 415 ft | 9 kts | 56° |
| 2026-05-06 09:30 | 36.79933 | 27.09087 | 414 ft | 1 kts | 57° |
| 2026-05-06 09:30 | 36.79934 | 27.09089 | 414 ft | 0 kts | 57° |